Time;durP1;ratioP1;P1;durP2;ratioP2;P2;SDS_P1;SDS_P2;PMS_P1;PMS_P2;Temp;Humidity;BMP_temperature;BMP_pressure;BME280_temperature;BME280_humidity;BME280_pressure;Samples;Min_cycle;Max_cycle;Signal;HPM_P1;HPM_P2
2022/04/22 00:01:01;;;;;;;28.05;16.25;;;;;;;10.25;nan;-24103.38;5015958;28;20207;-74
2022/04/22 00:03:27;;;;;;;28.25;16.23;;;;;;;10.27;nan;-24103.94;5015505;28;20180;-73
2022/04/22 00:05:52;;;;;;;26.58;15.45;;;;;;;10.18;nan;-24101.53;5014825;28;20278;-73
2022/04/22 00:08:18;;;;;;;24.48;14.75;;;;;;;10.09;nan;-24098.84;5014805;28;20234;-76
2022/04/22 00:13:28;;;;;;;28.95;16.38;;;;;;;10.14;nan;-24100.25;5014527;28;20190;-75
2022/04/22 00:15:53;;;;;;;26.13;15.88;;;;;;;10.34;nan;-24105.78;5015312;28;20168;-73
2022/04/22 00:18:19;;;;;;;25.60;15.35;;;;;;;10.47;nan;-24109.59;5013867;28;20184;-73
2022/04/22 00:20:45;;;;;;;23.88;15.35;;;;;;;10.13;nan;-24099.97;5014697;28;20231;-75
2022/04/22 00:23:10;;;;;;;25.17;16.63;;;;;;;10.24;nan;-24102.94;5013930;28;20588;-73
2022/04/22 00:25:35;;;;;;;26.85;16.98;;;;;;;10.52;nan;-24111.00;5015011;28;20186;-75
2022/04/22 00:28:02;;;;;;;27.52;16.83;;;;;;;10.06;nan;-24098.00;5014713;28;20210;-76
2022/04/22 00:30:29;;;;;;;30.23;17.60;;;;;;;10.21;nan;-24102.25;5014647;28;20274;-74
2022/04/22 00:32:54;;;;;;;32.55;18.98;;;;;;;10.15;nan;-24100.53;5013247;28;20243;-72
2022/04/22 00:35:20;;;;;;;29.92;17.92;;;;;;;10.54;nan;-24111.41;5014401;28;20326;-74
2022/04/22 00:37:47;;;;;;;30.83;18.77;;;;;;;10.55;nan;-24111.69;5014146;28;20179;-72
2022/04/22 00:40:12;;;;;;;30.67;17.15;;;;;;;10.28;nan;-24104.22;5012690;28;20622;-73
2022/04/22 00:42:39;;;;;;;31.30;18.60;;;;;;;10.57;nan;-24112.41;5014597;28;20267;-75
2022/04/22 00:45:05;;;;;;;30.17;18.05;;;;;;;10.56;nan;-24112.13;5013804;28;20541;-74
2022/04/22 00:47:31;;;;;;;30.13;18.27;;;;;;;10.46;nan;-24109.31;5010724;28;20310;-73
2022/04/22 00:49:56;;;;;;;33.05;18.90;;;;;;;10.41;nan;-24107.75;5014485;28;20625;-74
2022/04/22 00:52:24;;;;;;;31.80;19.23;;;;;;;10.03;nan;-24097.31;5013509;28;20187;-77
2022/04/22 00:54:50;;;;;;;29.80;17.83;;;;;;;10.13;nan;-24099.97;5014317;28;20545;-73
2022/04/22 00:57:18;;;;;;;29.92;18.80;;;;;;;10.28;nan;-24104.06;5014507;28;20180;-76
2022/04/22 00:59:45;;;;;;;36.53;21.42;;;;;;;10.55;nan;-24111.69;5013399;28;20202;-74
2022/04/22 01:02:10;;;;;;;33.47;19.95;;;;;;;10.56;nan;-24112.13;5014882;28;20184;-77
2022/04/22 01:10:05;;;;;;;29.27;18.70;;;;;;;10.21;nan;-24102.09;5013974;28;20171;-76
2022/04/22 01:12:31;;;;;;;30.98;19.60;;;;;;;10.34;nan;-24105.91;5014128;28;20179;-77
2022/04/22 01:14:58;;;;;;;34.75;20.63;;;;;;;10.75;nan;-24117.19;5013762;28;20172;-76
2022/04/22 01:17:24;;;;;;;33.72;20.20;;;;;;;10.62;nan;-24113.81;5013871;28;20189;-75
2022/04/22 01:19:50;;;;;;;33.47;19.90;;;;;;;10.66;nan;-24114.66;5013938;28;20745;-75
2022/04/22 01:22:16;;;;;;;31.17;19.75;;;;;;;10.54;nan;-24111.41;5013938;28;20255;-75
2022/04/22 01:24:42;;;;;;;33.97;20.27;;;;;;;10.85;nan;-24120.03;5013972;28;20172;-72
2022/04/22 01:27:10;;;;;;;30.48;18.05;;;;;;;10.81;nan;-24119.03;5013917;28;20184;-75
2022/04/22 01:29:35;;;;;;;29.65;18.88;;;;;;;10.75;nan;-24117.34;5013593;28;20176;-76
2022/04/22 01:32:01;;;;;;;32.08;19.88;;;;;;;10.70;nan;-24115.94;5013743;28;20176;-77
2022/04/22 01:34:27;;;;;;;35.25;21.58;;;;;;;10.59;nan;-24112.81;5013343;28;20194;-74
2022/04/22 01:36:52;;;;;;;34.80;22.35;;;;;;;10.33;nan;-24105.63;5012819;28;20172;-72
2022/04/22 01:39:18;;;;;;;39.55;22.95;;;;;;;10.60;nan;-24113.13;5013129;28;20183;-74
2022/04/22 01:41:43;;;;;;;36.67;22.70;;;;;;;10.66;nan;-24114.81;5013550;28;20571;-75
2022/04/22 01:44:09;;;;;;;36.38;23.30;;;;;;;10.37;nan;-24106.75;5013812;28;20207;-73
2022/04/22 01:46:34;;;;;;;35.97;22.67;;;;;;;10.52;nan;-24111.00;5013600;28;20250;-75
2022/04/22 01:49:00;;;;;;;39.35;22.92;;;;;;;10.67;nan;-24114.94;5028723;28;20172;-72
2022/04/22 01:51:25;;;;;;;37.30;22.27;;;;;;;10.72;nan;-24116.50;5013825;28;20183;-73
2022/04/22 01:53:51;;;;;;;38.25;22.45;;;;;;;10.69;nan;-24115.50;5045182;28;20346;-74
2022/04/22 01:56:17;;;;;;;37.95;22.17;;;;;;;10.33;nan;-24105.63;5013453;28;20180;-74
2022/04/22 01:58:42;;;;;;;35.22;22.10;;;;;;;10.35;nan;-24106.06;5013456;28;20176;-75
2022/04/22 02:01:07;;;;;;;38.25;22.00;;;;;;;10.13;nan;-24099.97;5013015;28;20729;-72
2022/04/22 02:03:33;;;;;;;36.78;22.58;;;;;;;10.10;nan;-24099.13;5014105;28;20246;-76
2022/04/22 02:05:58;;;;;;;36.08;22.65;;;;;;;10.62;nan;-24113.81;5013135;28;20557;-75
2022/04/22 02:08:23;;;;;;;35.70;21.38;;;;;;;10.62;nan;-24113.81;5013085;28;20164;-75
2022/04/22 02:10:49;;;;;;;37.58;21.95;;;;;;;10.60;nan;-24113.25;5013336;28;20183;-73
2022/04/22 02:13:14;;;;;;;38.30;22.48;;;;;;;10.43;nan;-24108.47;5013554;28;20237;-74
2022/04/22 02:15:40;;;;;;;39.42;22.70;;;;;;;10.01;nan;-24096.72;5013550;28;20631;-75
2022/04/22 02:18:06;;;;;;;37.95;22.50;;;;;;;10.23;nan;-24102.66;5012593;28;20176;-73
2022/04/22 02:20:32;;;;;;;41.08;23.17;;;;;;;10.23;nan;-24102.81;5012891;28;20281;-77
2022/04/22 02:22:57;;;;;;;37.87;22.53;;;;;;;9.99;nan;-24096.16;5013303;28;20222;-75
2022/04/22 02:25:23;;;;;;;40.40;22.98;;;;;;;9.76;nan;-24089.81;5012969;28;20560;-77
2022/04/22 02:30:32;;;;;;;39.33;24.07;;;;;;;9.56;nan;-24084.16;5012570;28;20191;-76
2022/04/22 02:32:57;;;;;;;39.33;24.20;;;;;;;10.01;nan;-24096.72;5013168;28;20176;-72
2022/04/22 02:35:23;;;;;;;39.33;23.53;;;;;;;9.87;nan;-24092.63;5013124;28;20259;-74
2022/04/22 02:37:49;;;;;;;38.57;23.67;;;;;;;9.80;nan;-24090.81;5012890;28;20176;-75
2022/04/22 02:45:43;;;;;;;43.87;25.43;;;;;;;10.09;nan;-24099.00;5012184;28;20245;-75
2022/04/22 02:48:09;;;;;;;49.60;26.80;;;;;;;9.76;nan;-24089.66;5011399;28;20270;-72
2022/04/22 02:50:34;;;;;;;47.40;26.63;;;;;;;9.80;nan;-24090.66;5011350;28;20180;-75
2022/04/22 02:53:00;;;;;;;42.50;26.17;;;;;;;9.86;nan;-24092.34;5011037;28;20374;-73
2022/04/22 02:55:25;;;;;;;43.10;25.63;;;;;;;9.80;nan;-24090.66;5012186;28;20183;-76
2022/04/22 02:57:52;;;;;;;43.23;26.00;;;;;;;9.76;nan;-24089.66;5010415;28;20188;-72
2022/04/22 03:00:17;;;;;;;42.05;25.52;;;;;;;9.94;nan;-24094.75;5015668;28;20243;-75
2022/04/22 03:02:43;;;;;;;39.28;23.50;;;;;;;10.08;nan;-24098.72;5014450;28;20187;-73
2022/04/22 03:05:10;;;;;;;40.47;23.73;;;;;;;10.01;nan;-24096.59;5016160;28;20171;-73
2022/04/22 03:07:35;;;;;;;39.80;24.40;;;;;;;10.00;nan;-24096.44;5017271;28;20632;-72
2022/04/22 03:10:00;;;;;;;46.25;25.23;;;;;;;10.18;nan;-24101.41;5024030;28;20188;-75
2022/04/22 03:12:26;;;;;;;42.95;25.05;;;;;;;10.30;nan;-24104.66;5023889;28;20186;-75
2022/04/22 03:14:52;;;;;;;40.28;23.08;;;;;;;9.94;nan;-24094.63;5019390;28;20188;-77
2022/04/22 03:17:19;;;;;;;42.10;23.63;;;;;;;10.28;nan;-24104.06;5010988;28;20172;-76
2022/04/22 03:19:44;;;;;;;43.57;24.50;;;;;;;10.34;nan;-24105.91;5007252;28;20210;-75
2022/04/22 03:22:10;;;;;;;41.22;24.17;;;;;;;9.91;nan;-24093.78;5011228;28;20705;-75
2022/04/22 03:24:36;;;;;;;38.95;23.30;;;;;;;10.14;nan;-24100.41;5011164;28;20195;-73
2022/04/22 03:27:02;;;;;;;47.07;22.50;;;;;;;10.01;nan;-24096.59;5011005;28;20184;-74
2022/04/22 03:29:27;;;;;;;35.83;21.87;;;;;;;10.22;nan;-24102.53;5011757;28;20587;-75
2022/04/22 03:31:54;;;;;;;36.07;21.40;;;;;;;10.02;nan;-24096.88;5015434;28;20211;-72
2022/04/22 03:34:19;;;;;;;36.20;21.00;;;;;;;9.77;nan;-24090.09;5015689;28;20194;-75
2022/04/22 03:36:45;;;;;;;40.37;21.63;;;;;;;10.12;nan;-24099.69;5015475;28;20184;-75
2022/04/22 03:39:10;;;;;;;34.43;20.63;;;;;;;9.81;nan;-24091.09;5015297;28;20270;-76
2022/04/22 03:41:38;;;;;;;38.70;21.67;;;;;;;10.22;nan;-24102.38;5015059;28;20184;-73
2022/04/22 03:44:03;;;;;;;40.35;22.52;;;;;;;10.40;nan;-24107.47;5015328;28;20246;-76
2022/04/22 03:46:30;;;;;;;35.87;21.37;;;;;;;10.09;nan;-24099.00;5015437;28;20223;-75
2022/04/22 03:48:56;;;;;;;36.85;21.70;;;;;;;10.09;nan;-24098.84;5014603;28;20332;-74
2022/04/22 03:51:21;;;;;;;35.63;21.67;;;;;;;10.44;nan;-24108.75;5015161;28;20614;-75
2022/04/22 03:53:59;;;;;;;34.53;21.30;;;;;;;10.56;nan;-24112.13;5015905;28;20670;-73
2022/04/22 03:59:08;;;;;;;35.30;21.30;;;;;;;10.41;nan;-24107.75;5013522;28;20194;-76
2022/04/22 04:01:33;;;;;;;37.17;22.70;;;;;;;10.29;nan;-24104.50;5014831;28;20196;-74
2022/04/22 04:03:59;;;;;;;33.58;22.15;;;;;;;10.37;nan;-24106.75;5013354;28;20234;-75
2022/04/22 04:06:26;;;;;;;36.85;21.67;;;;;;;10.24;nan;-24103.09;5015324;28;20187;-75
2022/04/22 04:17:04;;;;;;;35.93;21.90;;;;;;;10.50;nan;-24110.44;5016061;28;20186;-74
2022/04/22 04:24:57;;;;;;;34.90;21.67;;;;;;;10.33;nan;-24105.50;5011416;28;20207;-72
2022/04/22 04:27:23;;;;;;;42.40;23.63;;;;;;;10.34;nan;-24105.91;5015515;28;20659;-75
2022/04/22 04:29:48;;;;;;;40.87;23.93;;;;;;;10.38;nan;-24106.91;5014628;28;20245;-75
2022/04/22 04:32:15;;;;;;;37.13;23.00;;;;;;;10.04;nan;-24097.59;5014675;28;20663;-73
2022/04/22 04:34:40;;;;;;;37.23;21.80;;;;;;;10.32;nan;-24105.34;5014995;28;20176;-72
2022/04/22 04:37:06;;;;;;;36.53;21.30;;;;;;;10.32;nan;-24105.34;5013725;28;20203;-75
2022/04/22 04:39:32;;;;;;;34.57;21.10;;;;;;;10.06;nan;-24098.16;5013408;28;20698;-76
2022/04/22 04:41:58;;;;;;;38.05;21.38;;;;;;;10.31;nan;-24105.06;5012218;28;20270;-74
2022/04/22 04:44:24;;;;;;;38.17;21.43;;;;;;;10.25;nan;-24103.38;5029277;28;20241;-73
2022/04/22 04:46:49;;;;;;;33.72;20.52;;;;;;;10.14;nan;-24100.41;5013531;28;20614;-74
2022/04/22 04:49:15;;;;;;;35.22;21.30;;;;;;;10.45;nan;-24108.88;5003813;28;20180;-74
2022/04/22 04:51:40;;;;;;;37.42;21.17;;;;;;;10.20;nan;-24101.97;5004921;28;20651;-76
2022/04/22 04:54:05;;;;;;;36.88;20.98;;;;;;;10.13;nan;-24100.13;5040253;28;20348;-76
2022/04/22 04:56:34;;;;;;;36.17;20.85;;;;;;;10.57;nan;-24112.25;5005944;28;20185;-75
2022/04/22 04:58:59;;;;;;;32.60;19.48;;;;;;;10.47;nan;-24109.44;5005317;28;20238;-73
2022/04/22 05:01:25;;;;;;;33.38;19.10;;;;;;;10.10;nan;-24099.13;5012142;28;20624;-73
2022/04/22 05:03:50;;;;;;;32.78;20.10;;;;;;;10.44;nan;-24108.75;5005863;28;20180;-76
2022/04/22 05:06:15;;;;;;;32.83;19.77;;;;;;;10.47;nan;-24109.59;5013283;28;20190;-76
2022/04/22 05:08:41;;;;;;;36.55;21.13;;;;;;;10.38;nan;-24106.91;5012877;28;20216;-75
2022/04/22 05:11:06;;;;;;;33.95;19.17;;;;;;;10.87;nan;-24120.59;5013504;28;20650;-73
2022/04/22 05:13:32;;;;;;;30.40;19.25;;;;;;;10.81;nan;-24118.91;5013657;28;20184;-76
2022/04/22 05:15:57;;;;;;;33.20;19.63;;;;;;;10.48;nan;-24109.88;5011676;28;20265;-76
2022/04/22 05:18:23;;;;;;;32.60;18.55;;;;;;;10.51;nan;-24110.56;5003598;28;20184;-73
2022/04/22 05:20:49;;;;;;;31.10;19.23;;;;;;;10.23;nan;-24102.81;5014204;28;20199;-73
2022/04/22 05:23:14;;;;;;;36.22;19.85;;;;;;;10.35;nan;-24106.06;5013878;28;20187;-76
2022/04/22 05:25:40;;;;;;;32.85;20.08;;;;;;;10.51;nan;-24110.72;5015201;28;20187;-76
2022/04/22 05:28:06;;;;;;;34.35;21.63;;;;;;;10.36;nan;-24106.47;5013331;28;20187;-74
2022/04/22 05:33:16;;;;;;;38.85;20.50;;;;;;;10.27;nan;-24103.94;5013199;28;20671;-77
2022/04/22 05:35:42;;;;;;;43.95;22.67;;;;;;;10.30;nan;-24104.78;5013842;28;20185;-76
2022/04/22 05:38:09;;;;;;;54.60;34.53;;;;;;;10.46;nan;-24109.16;5013760;28;20179;-76
2022/04/22 05:40:38;;;;;;;97.05;55.60;;;;;;;10.40;nan;-24107.63;5013922;28;20702;-74
2022/04/22 05:43:05;;;;;;;85.77;50.33;;;;;;;10.61;nan;-24113.41;5012993;28;20678;-75
2022/04/22 05:45:31;;;;;;;59.83;37.13;;;;;;;10.62;nan;-24113.81;5012237;28;20194;-71
2022/04/22 05:47:57;;;;;;;51.87;32.80;;;;;;;10.84;nan;-24119.88;5012082;28;20262;-71
2022/04/22 05:50:24;;;;;;;57.28;31.45;;;;;;;10.56;nan;-24112.13;5012628;28;20202;-73
2022/04/22 05:52:49;;;;;;;52.55;33.05;;;;;;;10.81;nan;-24119.03;5011703;28;20303;-72
2022/04/22 05:55:17;;;;;;;53.10;32.65;;;;;;;10.81;nan;-24119.03;5010945;28;20711;-71
2022/04/22 05:57:44;;;;;;;50.88;30.55;;;;;;;11.02;nan;-24124.81;5011900;28;20218;-71
2022/04/22 06:00:12;;;;;;;44.92;28.13;;;;;;;11.14;nan;-24128.19;5012701;28;20199;-72
2022/04/22 06:02:42;;;;;;;44.03;27.35;;;;;;;11.28;nan;-24132.00;5010199;28;20198;-71
2022/04/22 06:05:11;;;;;;;38.22;23.75;;;;;;;11.29;nan;-24132.28;5010023;28;20183;-70
2022/04/22 06:07:38;;;;;;;38.53;25.05;;;;;;;10.55;nan;-24111.69;5011519;28;20180;-71
2022/04/22 06:12:53;;;;;;;34.67;22.25;;;;;;;10.87;nan;-24120.59;5012219;28;20250;-71
2022/04/22 06:15:20;;;;;;;41.85;22.67;;;;;;;11.22;nan;-24130.47;5012123;28;20191;-71
2022/04/22 06:17:46;;;;;;;40.22;23.63;;;;;;;11.27;nan;-24131.88;5012259;28;20686;-71
2022/04/22 06:20:11;;;;;;;38.47;22.90;;;;;;;10.77;nan;-24117.78;5008366;28;20219;-73
2022/04/22 06:22:37;;;;;;;37.15;22.30;;;;;;;10.97;nan;-24123.41;5010212;28;20234;-71
2022/04/22 06:25:03;;;;;;;40.28;23.58;;;;;;;11.15;nan;-24128.47;5010499;28;20191;-72
2022/04/22 06:27:35;;;;;;;38.20;22.73;;;;;;;11.17;nan;-24128.91;5011329;28;20685;-74
2022/04/22 06:30:11;;;;;;;34.13;22.23;;;;;;;11.15;nan;-24128.47;5007440;28;20215;-74
2022/04/22 06:32:38;;;;;;;35.00;22.52;;;;;;;11.32;nan;-24133.13;5012174;28;20176;-75
2022/04/22 06:35:05;;;;;;;35.45;20.77;;;;;;;11.16;nan;-24128.75;5010361;28;20654;-75
2022/04/22 06:37:34;;;;;;;32.80;20.73;;;;;;;11.40;nan;-24135.53;5010271;28;20188;-74
2022/04/22 06:45:46;;;;;;;36.88;22.75;;;;;;;11.19;nan;-24129.59;5010308;28;20210;-75
2022/04/22 06:48:14;;;;;;;37.42;23.77;;;;;;;10.86;nan;-24120.31;5025805;28;20746;-74
2022/04/22 06:50:40;;;;;;;38.50;24.25;;;;;;;10.84;nan;-24119.88;5008419;28;20267;-75
2022/04/22 06:53:06;;;;;;;36.42;23.45;;;;;;;11.65;nan;-24142.28;5010814;28;20227;-75
2022/04/22 06:55:32;;;;;;;36.25;22.92;;;;;;;11.43;nan;-24136.38;5009236;28;20180;-76
2022/04/22 06:58:00;;;;;;;37.03;23.17;;;;;;;11.87;nan;-24148.50;5027054;28;20548;-76
2022/04/22 07:00:25;;;;;;;35.63;21.73;;;;;;;11.94;nan;-24150.59;5010037;28;20227;-75
2022/04/22 07:02:51;;;;;;;34.08;20.27;;;;;;;11.92;nan;-24149.91;5010871;28;20214;-75
2022/04/22 07:05:17;;;;;;;34.60;19.50;;;;;;;12.11;nan;-24155.25;5024123;28;20214;-76
2022/04/22 07:07:42;;;;;;;28.13;18.02;;;;;;;11.99;nan;-24151.88;5010528;28;20188;-75
2022/04/22 07:10:08;;;;;;;27.20;18.20;;;;;;;12.18;nan;-24157.22;5008864;28;20180;-74
2022/04/22 07:12:34;;;;;;;25.17;16.75;;;;;;;12.20;nan;-24157.78;5011487;28;20176;-75
2022/04/22 07:15:03;;;;;;;26.40;16.50;;;;;;;12.28;nan;-24160.03;5010220;28;20187;-74
2022/04/22 07:17:40;;;;;;;25.90;16.98;;;;;;;12.60;nan;-24168.91;5003448;28;20184;-76
2022/04/22 07:20:11;;;;;;;27.30;16.77;;;;;;;12.35;nan;-24162.00;5006854;28;20203;-75
2022/04/22 07:22:37;;;;;;;25.25;16.08;;;;;;;12.32;nan;-24161.16;5024709;28;20184;-74
2022/04/22 07:25:08;;;;;;;23.58;15.43;;;;;;;12.30;nan;-24160.59;5009706;28;20184;-75
2022/04/22 07:27:36;;;;;;;23.55;16.02;;;;;;;12.38;nan;-24162.72;5010929;28;20184;-75
2022/04/22 07:30:05;;;;;;;25.20;15.63;;;;;;;12.70;nan;-24171.56;5010206;28;20192;-77
2022/04/22 07:32:30;;;;;;;23.42;15.77;;;;;;;12.90;nan;-24177.19;5002603;28;20172;-75
2022/04/22 07:34:56;;;;;;;24.30;16.05;;;;;;;12.55;nan;-24167.50;5010027;28;20635;-74
2022/04/22 07:37:22;;;;;;;24.42;15.13;;;;;;;12.44;nan;-24164.25;5010289;28;20551;-74
2022/04/22 07:39:48;;;;;;;22.92;15.23;;;;;;;13.03;nan;-24180.84;5009842;28;20268;-74
2022/04/22 07:42:19;;;;;;;22.23;14.75;;;;;;;12.94;nan;-24178.19;5011634;28;20262;-74
2022/04/22 07:47:36;;;;;;;21.60;14.13;;;;;;;13.14;nan;-24183.81;5005902;28;20211;-75
2022/04/22 07:50:05;;;;;;;18.58;13.50;;;;;;;12.83;nan;-24175.38;5011176;28;20176;-74
2022/04/22 07:52:33;;;;;;;21.13;14.25;;;;;;;13.19;nan;-24185.34;5011518;28;20609;-74
2022/04/22 07:54:59;;;;;;;20.85;13.60;;;;;;;13.46;nan;-24192.78;5010917;28;20181;-74
2022/04/22 07:57:25;;;;;;;21.85;13.68;;;;;;;13.34;nan;-24189.44;5011747;28;20199;-74
2022/04/22 07:59:51;;;;;;;22.85;13.55;;;;;;;13.24;nan;-24186.75;5011006;28;20595;-76
2022/04/22 08:02:16;;;;;;;17.55;12.75;;;;;;;13.39;nan;-24190.69;5003454;28;20176;-76
2022/04/22 08:04:43;;;;;;;17.27;12.70;;;;;;;13.27;nan;-24187.59;5010358;28;20241;-74
2022/04/22 08:07:09;;;;;;;19.80;12.52;;;;;;;13.72;nan;-24199.97;5011890;28;20176;-76
2022/04/22 08:09:34;;;;;;;17.63;12.52;;;;;;;13.84;nan;-24203.19;5011160;28;20184;-75
2022/04/22 08:12:00;;;;;;;17.67;12.32;;;;;;;13.91;nan;-24205.28;5011593;28;20543;-76
2022/04/22 08:14:27;;;;;;;16.45;12.18;;;;;;;13.59;nan;-24196.31;5010843;28;20180;-75
2022/04/22 08:16:54;;;;;;;14.90;11.93;;;;;;;13.68;nan;-24198.84;5014832;28;20242;-73
2022/04/22 08:19:20;;;;;;;20.38;12.80;;;;;;;13.72;nan;-24199.97;5015327;28;20180;-74
2022/04/22 08:21:46;;;;;;;15.73;12.48;;;;;;;13.93;nan;-24205.84;5015227;28;20188;-73
2022/04/22 08:24:11;;;;;;;20.80;13.40;;;;;;;14.26;nan;-24214.97;5014202;28;20180;-74
2022/04/22 08:26:37;;;;;;;19.58;12.77;;;;;;;14.39;nan;-24218.63;5010132;28;20192;-74
2022/04/22 08:29:03;;;;;;;17.40;11.88;;;;;;;14.81;nan;-24230.25;5008853;28;20557;-75
2022/04/22 08:31:28;;;;;;;17.42;12.38;;;;;;;14.65;nan;-24225.78;5014234;28;20249;-75
2022/04/22 08:33:56;;;;;;;17.00;12.25;;;;;;;14.57;nan;-24223.53;5014556;28;20590;-75
2022/04/22 08:36:22;;;;;;;18.52;12.60;;;;;;;14.78;nan;-24229.41;5011161;28;20176;-75
2022/04/22 08:38:47;;;;;;;19.50;12.82;;;;;;;14.50;nan;-24221.56;5008136;28;20188;-76
2022/04/22 08:41:15;;;;;;;17.05;11.98;;;;;;;13.95;nan;-24206.41;5007363;28;20199;-75
2022/04/22 08:43:40;;;;;;;15.82;11.43;;;;;;;14.19;nan;-24212.88;5008211;28;20176;-76
2022/04/22 08:49:58;;;;;;;18.10;12.32;;;;;;;14.87;nan;-24231.81;5006534;28;20172;-76
2022/04/22 08:51:41;;;;;;;19.08;13.13;;;;;;;15.06;nan;-24237.13;5006829;28;20341;-75
2022/04/22 08:54:09;;;;;;;19.08;12.52;;;;;;;15.03;nan;-24236.44;5007167;28;20243;-75
2022/04/22 08:56:36;;;;;;;21.27;13.07;;;;;;;14.90;nan;-24232.63;5007280;28;20242;-73
2022/04/22 08:59:02;;;;;;;20.95;13.82;;;;;;;14.59;nan;-24224.09;5007646;28;20184;-74
2022/04/22 09:01:27;;;;;;;18.17;13.60;;;;;;;14.94;nan;-24233.91;5007670;28;20219;-73
2022/04/22 09:03:53;;;;;;;17.98;13.27;;;;;;;15.31;nan;-24244.00;5007177;28;20242;-74
2022/04/22 09:06:21;;;;;;;17.90;13.18;;;;;;;15.57;nan;-24251.28;5006794;28;20184;-75
2022/04/22 09:08:50;;;;;;;18.38;12.90;;;;;;;16.34;nan;-24272.69;5008669;28;20175;-75
2022/04/22 09:11:16;;;;;;;18.88;12.23;;;;;;;16.23;nan;-24269.47;5013920;28;20218;-76
2022/04/22 09:13:41;;;;;;;16.55;11.38;;;;;;;15.98;nan;-24262.47;5020151;28;20183;-73
2022/04/22 09:16:08;;;;;;;15.00;11.00;;;;;;;15.96;nan;-24261.91;5021576;28;20250;-73
2022/04/22 09:18:37;;;;;;;16.70;11.40;;;;;;;15.25;nan;-24242.31;5035231;28;20180;-72
2022/04/22 09:21:06;;;;;;;15.38;11.63;;;;;;;15.97;nan;-24262.19;5037897;28;20226;-75
2022/04/22 09:23:34;;;;;;;16.80;11.70;;;;;;;15.13;nan;-24238.94;5031420;28;20187;-73
2022/04/22 09:26:02;;;;;;;14.70;10.60;;;;;;;15.45;nan;-24247.91;5013108;28;20322;-74
2022/04/22 09:28:27;;;;;;;16.10;11.70;;;;;;;15.83;nan;-24258.56;5013469;28;20694;-73
2022/04/22 09:30:57;;;;;;;16.27;10.75;;;;;;;15.76;nan;-24256.59;5013346;28;20275;-74
2022/04/22 09:33:22;;;;;;;14.45;10.63;;;;;;;15.98;nan;-24262.59;4996670;28;20248;-75
2022/04/22 09:44:24;;;;;;;16.17;11.85;;;;;;;16.10;nan;-24265.81;5013120;28;20674;-74
2022/04/22 09:47:09;;;;;;;17.52;11.90;;;;;;;15.98;nan;-24262.47;5010237;28;20179;-76
2022/04/22 09:49:39;;;;;;;15.95;11.55;;;;;;;15.76;nan;-24256.59;5011475;28;20543;-75
2022/04/22 09:52:05;;;;;;;15.40;11.45;;;;;;;15.80;nan;-24257.72;5013516;28;20168;-76
2022/04/22 09:54:31;;;;;;;15.50;12.05;;;;;;;16.24;nan;-24269.75;5013495;28;20518;-75
2022/04/22 09:56:57;;;;;;;15.10;11.75;;;;;;;16.52;nan;-24277.56;5013915;28;20245;-75
2022/04/22 09:59:23;;;;;;;17.50;11.25;;;;;;;16.69;nan;-24282.31;5012851;28;20238;-75
2022/04/22 10:01:50;;;;;;;13.70;10.60;;;;;;;16.69;nan;-24282.31;5013043;28;20192;-75
2022/04/22 10:04:17;;;;;;;15.30;11.52;;;;;;;16.82;nan;-24285.81;5012814;28;20224;-74
2022/04/22 10:06:44;;;;;;;13.27;10.38;;;;;;;16.50;nan;-24277.00;5013101;28;20263;-76
2022/04/22 10:09:11;;;;;;;17.98;10.82;;;;;;;16.34;nan;-24272.53;5012551;28;20445;-75
2022/04/22 10:11:38;;;;;;;16.08;11.23;;;;;;;16.07;nan;-24265.00;5013310;28;20735;-74
2022/04/22 10:14:11;;;;;;;16.17;10.48;;;;;;;16.31;nan;-24271.69;5012348;28;20215;-73
2022/04/22 10:16:37;;;;;;;16.52;10.18;;;;;;;16.24;nan;-24269.75;5013242;28;20207;-75
2022/04/22 10:19:05;;;;;;;15.98;10.43;;;;;;;17.12;nan;-24294.19;5012764;28;20270;-76
2022/04/22 10:21:31;;;;;;;13.52;9.90;;;;;;;17.58;nan;-24306.91;5011216;28;20563;-76
2022/04/22 10:23:57;;;;;;;14.48;10.38;;;;;;;17.55;nan;-24306.06;5012215;28;20188;-75
2022/04/22 10:26:23;;;;;;;14.40;9.60;;;;;;;17.39;nan;-24301.59;5012532;28;20242;-76
2022/04/22 10:28:49;;;;;;;12.10;9.52;;;;;;;17.35;nan;-24300.34;5012477;28;20183;-75
2022/04/22 10:31:15;;;;;;;14.13;10.40;;;;;;;17.94;nan;-24316.81;5012116;28;20188;-75
2022/04/22 10:33:45;;;;;;;17.30;10.52;;;;;;;17.25;nan;-24297.69;5012348;28;20188;-74
2022/04/22 10:36:18;;;;;;;15.60;10.98;;;;;;;16.97;nan;-24289.88;5012005;28;20191;-75
2022/04/22 10:38:50;;;;;;;14.98;10.82;;;;;;;17.03;nan;-24291.53;5012892;28;20658;-74
2022/04/22 10:41:21;;;;;;;14.77;10.25;;;;;;;16.92;nan;-24288.47;5011876;28;20238;-76
2022/04/22 10:47:13;;;;;;;14.60;9.77;;;;;;;17.55;nan;-24305.91;5012611;28;20188;-75
2022/04/22 10:49:17;;;;;;;14.68;10.02;;;;;;;17.90;nan;-24315.53;5011653;28;20227;-76
2022/04/22 10:51:59;;;;;;;15.07;10.00;;;;;;;17.91;nan;-24315.81;5012442;28;20211;-76
2022/04/22 10:54:52;;;;;;;12.45;8.63;;;;;;;18.86;nan;-24342.16;5011575;28;20248;-75
2022/04/22 10:57:25;;;;;;;12.07;8.73;;;;;;;18.78;nan;-24339.94;5004326;28;20366;-77
2022/04/22 11:00:09;;;;;;;14.45;9.50;;;;;;;18.40;nan;-24329.34;5011954;28;20426;-75
2022/04/22 11:02:37;;;;;;;12.07;9.02;;;;;;;18.66;nan;-24336.59;5006027;28;20272;-77
2022/04/22 11:05:18;;;;;;;14.75;8.88;;;;;;;19.04;nan;-24346.91;5010815;28;20180;-76
2022/04/22 11:08:05;;;;;;;12.25;8.27;;;;;;;18.67;nan;-24336.88;5012200;28;20746;-76
2022/04/22 11:10:46;;;;;;;12.70;8.35;;;;;;;18.54;nan;-24333.25;5023735;28;20710;-76
2022/04/22 11:13:39;;;;;;;10.27;7.40;;;;;;;18.49;nan;-24331.84;5011799;28;20184;-74
2022/04/22 11:16:05;;;;;;;10.88;8.02;;;;;;;18.80;nan;-24340.50;5011463;28;20187;-76
2022/04/22 11:18:31;;;;;;;11.30;8.13;;;;;;;18.46;nan;-24331.16;5012470;28;20190;-77
2022/04/22 11:21:15;;;;;;;11.38;7.55;;;;;;;18.67;nan;-24336.72;5011461;28;20208;-77
2022/04/22 11:23:44;;;;;;;14.02;8.73;;;;;;;17.97;nan;-24317.63;5012446;28;20179;-75
2022/04/22 11:26:15;;;;;;;10.45;7.15;;;;;;;17.99;nan;-24318.19;5011221;28;20582;-76
2022/04/22 11:28:42;;;;;;;10.70;7.60;;;;;;;18.70;nan;-24337.56;5012192;28;20180;-77
2022/04/22 11:31:10;;;;;;;11.95;7.47;;;;;;;18.80;nan;-24340.50;5011529;28;20205;-77
2022/04/22 11:33:50;;;;;;;10.73;7.53;;;;;;;19.24;nan;-24352.47;5012332;28;20271;-75
2022/04/22 11:36:16;;;;;;;11.68;8.10;;;;;;;18.91;nan;-24343.41;5011347;28;20246;-77
2022/04/22 11:38:47;;;;;;;12.15;7.53;;;;;;;19.03;nan;-24346.63;5012090;28;20180;-77
2022/04/22 11:41:14;;;;;;;11.93;7.57;;;;;;;19.04;nan;-24347.03;5026556;28;20207;-77
2022/04/22 11:43:40;;;;;;;9.90;7.70;;;;;;;18.82;nan;-24340.91;5010994;28;20230;-77
2022/04/22 11:46:05;;;;;;;11.80;8.27;;;;;;;19.01;nan;-24346.19;5012185;28;20180;-77
2022/04/22 11:48:31;;;;;;;9.77;7.60;;;;;;;19.54;nan;-24360.81;5011876;28;20238;-77
2022/04/22 11:51:00;;;;;;;10.90;7.85;;;;;;;19.35;nan;-24355.66;5013581;28;20529;-76
2022/04/22 11:53:26;;;;;;;11.15;7.22;;;;;;;19.50;nan;-24359.56;5016095;28;20239;-78
2022/04/22 11:55:52;;;;;;;11.75;7.40;;;;;;;20.00;nan;-24373.31;5015889;28;20249;-77
2022/04/22 11:58:24;;;;;;;9.23;6.20;;;;;;;20.10;nan;-24376.09;5015981;28;20643;-76
2022/04/22 12:06:21;;;;;;;9.48;5.50;;;;;;;20.24;nan;-24380.13;5015792;28;20186;-76
2022/04/22 12:08:54;;;;;;;7.55;5.10;;;;;;;20.11;nan;-24376.50;5016092;28;20234;-75
2022/04/22 12:11:20;;;;;;;6.93;5.53;;;;;;;20.04;nan;-24374.44;5015736;28;20180;-77
2022/04/22 12:13:50;;;;;;;10.70;5.20;;;;;;;20.13;nan;-24376.94;5015445;28;20176;-76
2022/04/22 12:16:21;;;;;;;6.78;5.03;;;;;;;20.41;nan;-24384.56;5015477;28;20168;-77
2022/04/22 12:18:50;;;;;;;6.63;5.13;;;;;;;20.40;nan;-24384.28;5015094;28;20203;-75
2022/04/22 12:21:17;;;;;;;6.30;5.07;;;;;;;20.31;nan;-24381.94;5015406;28;20691;-76
2022/04/22 12:23:49;;;;;;;5.63;4.72;;;;;;;20.17;nan;-24378.19;5014330;28;20226;-76
2022/04/22 12:26:20;;;;;;;6.03;4.68;;;;;;;20.73;nan;-24393.44;5014849;28;20172;-77
2022/04/22 12:29:15;;;;;;;7.38;4.75;;;;;;;20.65;nan;-24391.22;5015231;28;20164;-76
2022/04/22 12:31:43;;;;;;;10.32;4.55;;;;;;;20.75;nan;-24393.88;5018582;28;20261;-76
2022/04/22 12:34:11;;;;;;;7.10;4.38;;;;;;;20.60;nan;-24389.84;5015013;28;20255;-75